sensor_id;sensor_type;location;lat;lon;timestamp;temperature;humidity
11989;DHT22;6054;50.966;7.094;2023-10-08T00:02:23;25.20;52.90
11989;DHT22;6054;50.966;7.094;2023-10-08T00:04:52;25.20;53.00
11989;DHT22;6054;50.966;7.094;2023-10-08T00:07:20;25.20;52.90
11989;DHT22;6054;50.966;7.094;2023-10-08T00:09:48;25.20;52.90
11989;DHT22;6054;50.966;7.094;2023-10-08T00:12:16;25.20;53.10
11989;DHT22;6054;50.966;7.094;2023-10-08T00:14:44;25.30;53.00
11989;DHT22;6054;50.966;7.094;2023-10-08T00:17:16;25.20;53.10
11989;DHT22;6054;50.966;7.094;2023-10-08T00:19:44;25.20;53.00
11989;DHT22;6054;50.966;7.094;2023-10-08T00:22:10;25.10;52.80
11989;DHT22;6054;50.966;7.094;2023-10-08T00:24:39;25.10;52.80
11989;DHT22;6054;50.966;7.094;2023-10-08T00:27:07;25.10;53.00
11989;DHT22;6054;50.966;7.094;2023-10-08T00:29:34;25.20;53.20
11989;DHT22;6054;50.966;7.094;2023-10-08T00:32:05;25.30;52.70
11989;DHT22;6054;50.966;7.094;2023-10-08T00:34:38;25.10;53.00
11989;DHT22;6054;50.966;7.094;2023-10-08T00:37:09;25.10;53.10
11989;DHT22;6054;50.966;7.094;2023-10-08T00:39:37;25.10;53.20
11989;DHT22;6054;50.966;7.094;2023-10-08T00:42:05;25.00;53.00
11989;DHT22;6054;50.966;7.094;2023-10-08T00:44:33;25.00;53.20
11989;DHT22;6054;50.966;7.094;2023-10-08T00:47:06;25.00;53.10
11989;DHT22;6054;50.966;7.094;2023-10-08T00:49:37;25.00;53.00
11989;DHT22;6054;50.966;7.094;2023-10-08T00:52:29;24.90;53.00
11989;DHT22;6054;50.966;7.094;2023-10-08T00:55:04;24.90;53.10
11989;DHT22;6054;50.966;7.094;2023-10-08T00:57:36;24.90;53.10
11989;DHT22;6054;50.966;7.094;2023-10-08T01:00:13;24.90;53.10
11989;DHT22;6054;50.966;7.094;2023-10-08T01:02:47;24.90;53.10
11989;DHT22;6054;50.966;7.094;2023-10-08T01:05:22;24.90;52.80
11989;DHT22;6054;50.966;7.094;2023-10-08T01:08:02;24.90;53.10
11989;DHT22;6054;50.966;7.094;2023-10-08T01:10:31;24.90;53.20
11989;DHT22;6054;50.966;7.094;2023-10-08T01:12:59;24.90;53.30
11989;DHT22;6054;50.966;7.094;2023-10-08T01:15:31;24.80;53.30
11989;DHT22;6054;50.966;7.094;2023-10-08T01:18:02;24.80;53.30
11989;DHT22;6054;50.966;7.094;2023-10-08T01:20:31;24.80;53.40
11989;DHT22;6054;50.966;7.094;2023-10-08T01:23:04;24.80;53.30
11989;DHT22;6054;50.966;7.094;2023-10-08T01:25:36;24.90;53.40
11989;DHT22;6054;50.966;7.094;2023-10-08T01:28:04;24.70;53.30
11989;DHT22;6054;50.966;7.094;2023-10-08T01:30:34;24.80;53.30
11989;DHT22;6054;50.966;7.094;2023-10-08T01:33:07;24.80;52.80
11989;DHT22;6054;50.966;7.094;2023-10-08T01:35:37;24.80;53.10
11989;DHT22;6054;50.966;7.094;2023-10-08T01:38:05;24.80;52.80
11989;DHT22;6054;50.966;7.094;2023-10-08T01:40:34;24.90;52.90
11989;DHT22;6054;50.966;7.094;2023-10-08T01:43:01;24.70;52.60
11989;DHT22;6054;50.966;7.094;2023-10-08T01:45:29;24.70;52.40
11989;DHT22;6054;50.966;7.094;2023-10-08T01:47:57;24.90;52.60
11989;DHT22;6054;50.966;7.094;2023-10-08T01:50:24;24.70;52.20
11989;DHT22;6054;50.966;7.094;2023-10-08T01:52:51;24.70;52.70
11989;DHT22;6054;50.966;7.094;2023-10-08T01:55:19;24.70;52.60
11989;DHT22;6054;50.966;7.094;2023-10-08T01:57:48;24.60;52.50
11989;DHT22;6054;50.966;7.094;2023-10-08T02:00:17;24.60;52.60
11989;DHT22;6054;50.966;7.094;2023-10-08T02:02:45;24.50;52.30
11989;DHT22;6054;50.966;7.094;2023-10-08T02:05:12;24.70;52.80
11989;DHT22;6054;50.966;7.094;2023-10-08T02:07:40;24.50;52.60
11989;DHT22;6054;50.966;7.094;2023-10-08T02:10:08;24.50;52.30
11989;DHT22;6054;50.966;7.094;2023-10-08T02:12:37;24.50;52.60
11989;DHT22;6054;50.966;7.094;2023-10-08T02:15:05;24.40;52.30
11989;DHT22;6054;50.966;7.094;2023-10-08T02:17:32;24.50;52.70
11989;DHT22;6054;50.966;7.094;2023-10-08T02:19:59;24.40;52.40
11989;DHT22;6054;50.966;7.094;2023-10-08T02:22:26;24.40;52.30
11989;DHT22;6054;50.966;7.094;2023-10-08T02:24:53;24.40;52.30
11989;DHT22;6054;50.966;7.094;2023-10-08T02:27:26;24.30;52.60
11989;DHT22;6054;50.966;7.094;2023-10-08T02:29:54;24.30;52.40
11989;DHT22;6054;50.966;7.094;2023-10-08T02:32:21;24.30;52.30
11989;DHT22;6054;50.966;7.094;2023-10-08T02:34:49;24.30;52.50
11989;DHT22;6054;50.966;7.094;2023-10-08T02:37:16;24.30;52.60
11989;DHT22;6054;50.966;7.094;2023-10-08T02:39:42;24.30;52.50
11989;DHT22;6054;50.966;7.094;2023-10-08T02:42:10;24.20;52.30
11989;DHT22;6054;50.966;7.094;2023-10-08T02:44:39;24.40;52.50
11989;DHT22;6054;50.966;7.094;2023-10-08T02:47:09;24.30;52.70
11989;DHT22;6054;50.966;7.094;2023-10-08T02:49:37;24.10;52.60
11989;DHT22;6054;50.966;7.094;2023-10-08T02:52:06;24.20;52.70
11989;DHT22;6054;50.966;7.094;2023-10-08T02:54:34;24.10;52.80
11989;DHT22;6054;50.966;7.094;2023-10-08T02:57:03;24.10;52.80
11989;DHT22;6054;50.966;7.094;2023-10-08T02:59:35;24.10;52.80
11989;DHT22;6054;50.966;7.094;2023-10-08T03:02:08;24.10;52.80
11989;DHT22;6054;50.966;7.094;2023-10-08T03:04:40;24.10;52.80
11989;DHT22;6054;50.966;7.094;2023-10-08T03:07:08;24.10;53.00
11989;DHT22;6054;50.966;7.094;2023-10-08T03:09:37;24.10;52.90
11989;DHT22;6054;50.966;7.094;2023-10-08T03:12:07;24.10;52.90
11989;DHT22;6054;50.966;7.094;2023-10-08T03:14:36;24.10;52.80
11989;DHT22;6054;50.966;7.094;2023-10-08T03:17:15;24.20;53.20
11989;DHT22;6054;50.966;7.094;2023-10-08T03:19:45;24.10;53.00
11989;DHT22;6054;50.966;7.094;2023-10-08T03:22:12;24.00;53.10
11989;DHT22;6054;50.966;7.094;2023-10-08T03:24:44;24.00;53.00
11989;DHT22;6054;50.966;7.094;2023-10-08T03:27:14;24.00;53.20
11989;DHT22;6054;50.966;7.094;2023-10-08T03:29:45;24.00;53.20
11989;DHT22;6054;50.966;7.094;2023-10-08T03:32:15;24.00;53.20
11989;DHT22;6054;50.966;7.094;2023-10-08T03:34:45;24.00;53.40
11989;DHT22;6054;50.966;7.094;2023-10-08T03:37:13;23.90;53.40
11989;DHT22;6054;50.966;7.094;2023-10-08T03:39:46;24.00;54.10
11989;DHT22;6054;50.966;7.094;2023-10-08T03:42:27;23.90;53.70
11989;DHT22;6054;50.966;7.094;2023-10-08T03:45:00;24.00;53.70
11989;DHT22;6054;50.966;7.094;2023-10-08T03:47:39;23.90;53.60
11989;DHT22;6054;50.966;7.094;2023-10-08T03:50:11;23.90;53.60
11989;DHT22;6054;50.966;7.094;2023-10-08T03:52:42;23.90;53.70
11989;DHT22;6054;50.966;7.094;2023-10-08T03:55:10;23.90;53.50
11989;DHT22;6054;50.966;7.094;2023-10-08T03:57:47;23.90;53.60
11989;DHT22;6054;50.966;7.094;2023-10-08T04:00:22;23.90;53.70
11989;DHT22;6054;50.966;7.094;2023-10-08T04:02:58;23.90;53.60
11989;DHT22;6054;50.966;7.094;2023-10-08T04:05:34;23.90;53.80
11989;DHT22;6054;50.966;7.094;2023-10-08T04:08:09;23.90;54.00
11989;DHT22;6054;50.966;7.094;2023-10-08T04:10:50;23.90;54.00
11989;DHT22;6054;50.966;7.094;2023-10-08T04:13:47;23.80;53.90
11989;DHT22;6054;50.966;7.094;2023-10-08T04:16:14;23.90;54.00
11989;DHT22;6054;50.966;7.094;2023-10-08T04:18:46;23.80;53.90
11989;DHT22;6054;50.966;7.094;2023-10-08T04:21:17;23.80;54.10
11989;DHT22;6054;50.966;7.094;2023-10-08T04:23:46;23.80;54.10
11989;DHT22;6054;50.966;7.094;2023-10-08T04:26:17;23.80;53.90
11989;DHT22;6054;50.966;7.094;2023-10-08T04:28:49;23.80;54.10
11989;DHT22;6054;50.966;7.094;2023-10-08T04:31:20;23.80;54.20
11989;DHT22;6054;50.966;7.094;2023-10-08T04:33:51;23.80;54.30
11989;DHT22;6054;50.966;7.094;2023-10-08T04:36:18;23.80;54.00
11989;DHT22;6054;50.966;7.094;2023-10-08T04:38:45;23.80;54.20
11989;DHT22;6054;50.966;7.094;2023-10-08T04:41:14;23.80;54.20
11989;DHT22;6054;50.966;7.094;2023-10-08T04:43:44;23.80;54.30
11989;DHT22;6054;50.966;7.094;2023-10-08T04:46:11;23.70;54.40
11989;DHT22;6054;50.966;7.094;2023-10-08T04:48:51;23.70;53.90
11989;DHT22;6054;50.966;7.094;2023-10-08T04:51:18;23.70;53.90
11989;DHT22;6054;50.966;7.094;2023-10-08T04:53:48;23.70;54.20
11989;DHT22;6054;50.966;7.094;2023-10-08T04:56:15;23.60;54.10
11989;DHT22;6054;50.966;7.094;2023-10-08T04:58:43;23.80;54.40
11989;DHT22;6054;50.966;7.094;2023-10-08T05:01:12;23.60;54.30
11989;DHT22;6054;50.966;7.094;2023-10-08T05:03:47;23.60;54.30
11989;DHT22;6054;50.966;7.094;2023-10-08T05:06:38;23.60;54.30
11989;DHT22;6054;50.966;7.094;2023-10-08T05:09:16;23.60;54.20
11989;DHT22;6054;50.966;7.094;2023-10-08T05:11:49;23.60;54.20
11989;DHT22;6054;50.966;7.094;2023-10-08T05:14:34;23.50;54.10
11989;DHT22;6054;50.966;7.094;2023-10-08T05:17:06;23.50;54.20
11989;DHT22;6054;50.966;7.094;2023-10-08T05:19:35;23.50;54.20
11989;DHT22;6054;50.966;7.094;2023-10-08T05:22:23;23.50;54.20
11989;DHT22;6054;50.966;7.094;2023-10-08T05:25:08;23.50;54.30
11989;DHT22;6054;50.966;7.094;2023-10-08T05:27:52;23.50;54.30
11989;DHT22;6054;50.966;7.094;2023-10-08T05:30:25;23.50;54.40
11989;DHT22;6054;50.966;7.094;2023-10-08T05:32:54;23.50;54.30
11989;DHT22;6054;50.966;7.094;2023-10-08T05:35:38;23.50;54.30
11989;DHT22;6054;50.966;7.094;2023-10-08T05:38:22;23.50;54.40
11989;DHT22;6054;50.966;7.094;2023-10-08T05:40:49;23.40;54.30
11989;DHT22;6054;50.966;7.094;2023-10-08T05:43:42;23.40;54.20
11989;DHT22;6054;50.966;7.094;2023-10-08T05:46:21;23.40;54.20
11989;DHT22;6054;50.966;7.094;2023-10-08T05:49:13;23.30;54.20
11989;DHT22;6054;50.966;7.094;2023-10-08T05:51:59;23.30;54.20
11989;DHT22;6054;50.966;7.094;2023-10-08T05:54:51;23.30;54.30
11989;DHT22;6054;50.966;7.094;2023-10-08T05:57:41;23.30;54.40
11989;DHT22;6054;50.966;7.094;2023-10-08T06:00:13;23.30;54.40
11989;DHT22;6054;50.966;7.094;2023-10-08T06:02:57;23.30;54.40
11989;DHT22;6054;50.966;7.094;2023-10-08T06:05:58;23.30;54.50
11989;DHT22;6054;50.966;7.094;2023-10-08T06:08:48;23.30;54.60
11989;DHT22;6054;50.966;7.094;2023-10-08T06:11:16;23.20;54.40
11989;DHT22;6054;50.966;7.094;2023-10-08T06:13:56;23.20;54.20
11989;DHT22;6054;50.966;7.094;2023-10-08T06:16:26;23.20;54.40
11989;DHT22;6054;50.966;7.094;2023-10-08T06:19:07;23.20;54.60
11989;DHT22;6054;50.966;7.094;2023-10-08T06:21:35;23.20;54.50
11989;DHT22;6054;50.966;7.094;2023-10-08T06:24:03;23.40;54.60
11989;DHT22;6054;50.966;7.094;2023-10-08T06:26:36;23.20;54.50
11989;DHT22;6054;50.966;7.094;2023-10-08T06:29:09;23.20;54.80
11989;DHT22;6054;50.966;7.094;2023-10-08T06:31:44;23.20;54.90
11989;DHT22;6054;50.966;7.094;2023-10-08T06:34:16;23.20;55.10
11989;DHT22;6054;50.966;7.094;2023-10-08T06:36:47;23.20;54.90
11989;DHT22;6054;50.966;7.094;2023-10-08T06:39:13;23.30;55.30
11989;DHT22;6054;50.966;7.094;2023-10-08T06:41:45;23.40;55.30
11989;DHT22;6054;50.966;7.094;2023-10-08T06:44:12;23.30;55.30
11989;DHT22;6054;50.966;7.094;2023-10-08T06:46:41;23.30;55.20
11989;DHT22;6054;50.966;7.094;2023-10-08T06:49:08;23.30;55.10
11989;DHT22;6054;50.966;7.094;2023-10-08T06:51:38;23.40;55.30
11989;DHT22;6054;50.966;7.094;2023-10-08T06:54:07;23.40;55.10
11989;DHT22;6054;50.966;7.094;2023-10-08T06:56:36;23.40;55.10
11989;DHT22;6054;50.966;7.094;2023-10-08T06:59:05;23.60;55.30
11989;DHT22;6054;50.966;7.094;2023-10-08T07:01:35;23.50;55.30
11989;DHT22;6054;50.966;7.094;2023-10-08T07:04:05;23.60;55.30
11989;DHT22;6054;50.966;7.094;2023-10-08T07:06:37;23.50;55.00
11989;DHT22;6054;50.966;7.094;2023-10-08T07:09:05;23.50;55.00
11989;DHT22;6054;50.966;7.094;2023-10-08T07:11:39;23.60;55.30
11989;DHT22;6054;50.966;7.094;2023-10-08T07:14:12;23.60;55.20
11989;DHT22;6054;50.966;7.094;2023-10-08T07:16:40;23.60;55.20
11989;DHT22;6054;50.966;7.094;2023-10-08T07:19:07;23.60;55.20
11989;DHT22;6054;50.966;7.094;2023-10-08T07:21:43;23.60;55.20
11989;DHT22;6054;50.966;7.094;2023-10-08T07:24:11;23.70;55.60
11989;DHT22;6054;50.966;7.094;2023-10-08T07:26:41;23.70;55.40
11989;DHT22;6054;50.966;7.094;2023-10-08T07:29:14;23.70;55.50
11989;DHT22;6054;50.966;7.094;2023-10-08T07:31:43;23.80;55.80
11989;DHT22;6054;50.966;7.094;2023-10-08T07:34:14;23.80;55.80
11989;DHT22;6054;50.966;7.094;2023-10-08T07:36:51;23.80;55.80
11989;DHT22;6054;50.966;7.094;2023-10-08T07:39:20;23.90;55.80
11989;DHT22;6054;50.966;7.094;2023-10-08T07:41:52;23.80;55.70
11989;DHT22;6054;50.966;7.094;2023-10-08T07:44:22;24.00;55.80
11989;DHT22;6054;50.966;7.094;2023-10-08T07:46:50;23.90;55.80
11989;DHT22;6054;50.966;7.094;2023-10-08T07:49:17;23.90;55.80
11989;DHT22;6054;50.966;7.094;2023-10-08T07:51:44;23.90;55.60
11989;DHT22;6054;50.966;7.094;2023-10-08T07:54:17;23.90;55.60
11989;DHT22;6054;50.966;7.094;2023-10-08T07:56:45;24.00;55.70
11989;DHT22;6054;50.966;7.094;2023-10-08T07:59:12;24.00;55.50
11989;DHT22;6054;50.966;7.094;2023-10-08T08:01:42;24.00;55.00
11989;DHT22;6054;50.966;7.094;2023-10-08T08:04:09;24.00;55.20
11989;DHT22;6054;50.966;7.094;2023-10-08T08:06:36;24.10;55.20
11989;DHT22;6054;50.966;7.094;2023-10-08T08:09:03;24.10;55.10
11989;DHT22;6054;50.966;7.094;2023-10-08T08:11:34;24.30;55.30
11989;DHT22;6054;50.966;7.094;2023-10-08T08:14:02;24.20;55.10
11989;DHT22;6054;50.966;7.094;2023-10-08T08:16:33;24.10;54.80
11989;DHT22;6054;50.966;7.094;2023-10-08T08:19:03;24.20;54.50
11989;DHT22;6054;50.966;7.094;2023-10-08T08:21:30;24.20;54.30
11989;DHT22;6054;50.966;7.094;2023-10-08T08:23:57;24.20;54.00
11989;DHT22;6054;50.966;7.094;2023-10-08T08:26:30;24.20;53.90
11989;DHT22;6054;50.966;7.094;2023-10-08T08:29:04;24.50;54.00
11989;DHT22;6054;50.966;7.094;2023-10-08T08:31:35;24.30;53.80
11989;DHT22;6054;50.966;7.094;2023-10-08T08:34:06;24.30;53.80
11989;DHT22;6054;50.966;7.094;2023-10-08T08:36:39;24.30;53.70
11989;DHT22;6054;50.966;7.094;2023-10-08T08:39:11;24.30;53.40
11989;DHT22;6054;50.966;7.094;2023-10-08T08:41:58;24.40;53.40
11989;DHT22;6054;50.966;7.094;2023-10-08T08:44:27;24.50;53.60
11989;DHT22;6054;50.966;7.094;2023-10-08T08:46:57;24.40;53.30
11989;DHT22;6054;50.966;7.094;2023-10-08T08:49:26;24.70;53.40
11989;DHT22;6054;50.966;7.094;2023-10-08T08:51:55;24.50;53.30
11989;DHT22;6054;50.966;7.094;2023-10-08T08:54:26;24.50;53.20
11989;DHT22;6054;50.966;7.094;2023-10-08T08:56:56;24.50;53.20
11989;DHT22;6054;50.966;7.094;2023-10-08T08:59:23;24.50;53.00
11989;DHT22;6054;50.966;7.094;2023-10-08T09:01:50;24.60;52.90
11989;DHT22;6054;50.966;7.094;2023-10-08T09:04:31;24.70;53.10
11989;DHT22;6054;50.966;7.094;2023-10-08T09:06:59;24.60;52.90
11989;DHT22;6054;50.966;7.094;2023-10-08T09:09:33;24.60;52.70
11989;DHT22;6054;50.966;7.094;2023-10-08T09:12:00;24.70;52.70
11989;DHT22;6054;50.966;7.094;2023-10-08T09:14:30;24.70;52.20
11989;DHT22;6054;50.966;7.094;2023-10-08T09:16:57;24.70;52.20
11989;DHT22;6054;50.966;7.094;2023-10-08T09:19:26;24.70;52.30
11989;DHT22;6054;50.966;7.094;2023-10-08T09:22:01;24.70;52.00
11989;DHT22;6054;50.966;7.094;2023-10-08T09:24:30;24.70;51.90
11989;DHT22;6054;50.966;7.094;2023-10-08T09:26:56;24.70;51.70
11989;DHT22;6054;50.966;7.094;2023-10-08T09:29:23;24.80;51.60
11989;DHT22;6054;50.966;7.094;2023-10-08T09:31:52;24.80;51.80
11989;DHT22;6054;50.966;7.094;2023-10-08T09:34:21;24.80;52.00
11989;DHT22;6054;50.966;7.094;2023-10-08T09:36:48;24.80;51.70
11989;DHT22;6054;50.966;7.094;2023-10-08T09:39:17;24.90;51.70
11989;DHT22;6054;50.966;7.094;2023-10-08T09:41:50;24.90;52.00
11989;DHT22;6054;50.966;7.094;2023-10-08T09:44:19;24.90;51.80
11989;DHT22;6054;50.966;7.094;2023-10-08T09:46:50;25.10;51.90
11989;DHT22;6054;50.966;7.094;2023-10-08T09:49:25;25.00;51.80
11989;DHT22;6054;50.966;7.094;2023-10-08T09:51:55;25.00;51.80
11989;DHT22;6054;50.966;7.094;2023-10-08T09:54:27;25.10;51.80
11989;DHT22;6054;50.966;7.094;2023-10-08T09:56:58;25.00;51.70
11989;DHT22;6054;50.966;7.094;2023-10-08T09:59:27;25.10;51.60
11989;DHT22;6054;50.966;7.094;2023-10-08T10:01:54;25.10;51.50
11989;DHT22;6054;50.966;7.094;2023-10-08T10:04:25;25.10;51.50
11989;DHT22;6054;50.966;7.094;2023-10-08T10:06:54;25.10;51.40
11989;DHT22;6054;50.966;7.094;2023-10-08T10:09:25;25.20;51.70
11989;DHT22;6054;50.966;7.094;2023-10-08T10:11:54;25.10;51.80
11989;DHT22;6054;50.966;7.094;2023-10-08T10:14:23;25.20;51.70
11989;DHT22;6054;50.966;7.094;2023-10-08T10:17:13;25.20;51.70
11989;DHT22;6054;50.966;7.094;2023-10-08T10:19:42;25.20;51.60
11989;DHT22;6054;50.966;7.094;2023-10-08T10:22:12;25.30;51.50
11989;DHT22;6054;50.966;7.094;2023-10-08T10:24:42;25.30;51.70
11989;DHT22;6054;50.966;7.094;2023-10-08T10:27:12;25.30;51.30
11989;DHT22;6054;50.966;7.094;2023-10-08T10:29:40;25.30;51.50
11989;DHT22;6054;50.966;7.094;2023-10-08T10:32:10;25.40;51.30
11989;DHT22;6054;50.966;7.094;2023-10-08T10:34:39;25.40;51.60
11989;DHT22;6054;50.966;7.094;2023-10-08T10:37:06;25.50;51.50
11989;DHT22;6054;50.966;7.094;2023-10-08T10:39:50;25.50;51.40
11989;DHT22;6054;50.966;7.094;2023-10-08T10:42:19;25.50;51.50
11989;DHT22;6054;50.966;7.094;2023-10-08T10:44:47;25.60;51.40
11989;DHT22;6054;50.966;7.094;2023-10-08T10:47:16;25.60;51.50
11989;DHT22;6054;50.966;7.094;2023-10-08T10:50:08;25.60;51.50
11989;DHT22;6054;50.966;7.094;2023-10-08T10:52:52;25.60;51.30
11989;DHT22;6054;50.966;7.094;2023-10-08T10:55:20;25.60;51.20
11989;DHT22;6054;50.966;7.094;2023-10-08T10:57:49;25.80;51.20
11989;DHT22;6054;50.966;7.094;2023-10-08T11:00:28;25.70;51.40
11989;DHT22;6054;50.966;7.094;2023-10-08T11:03:13;25.70;51.20
11989;DHT22;6054;50.966;7.094;2023-10-08T11:05:47;25.80;51.30
11989;DHT22;6054;50.966;7.094;2023-10-08T11:08:17;25.80;51.40
11989;DHT22;6054;50.966;7.094;2023-10-08T11:10:47;25.80;51.40
11989;DHT22;6054;50.966;7.094;2023-10-08T11:13:17;26.00;51.40
11989;DHT22;6054;50.966;7.094;2023-10-08T11:15:47;25.90;51.50
11989;DHT22;6054;50.966;7.094;2023-10-08T11:18:19;25.90;51.30
11989;DHT22;6054;50.966;7.094;2023-10-08T11:20:47;25.90;51.40
11989;DHT22;6054;50.966;7.094;2023-10-08T11:23:32;26.00;51.40
11989;DHT22;6054;50.966;7.094;2023-10-08T11:26:02;25.90;51.40
11989;DHT22;6054;50.966;7.094;2023-10-08T11:28:31;26.00;51.60
11989;DHT22;6054;50.966;7.094;2023-10-08T11:31:00;26.00;51.50
11989;DHT22;6054;50.966;7.094;2023-10-08T11:33:34;26.00;51.30
11989;DHT22;6054;50.966;7.094;2023-10-08T11:36:01;26.10;51.50
11989;DHT22;6054;50.966;7.094;2023-10-08T11:38:38;26.30;51.40
11989;DHT22;6054;50.966;7.094;2023-10-08T11:41:13;26.20;51.10
11989;DHT22;6054;50.966;7.094;2023-10-08T11:43:47;26.20;51.10
11989;DHT22;6054;50.966;7.094;2023-10-08T11:46:17;26.30;51.30
11989;DHT22;6054;50.966;7.094;2023-10-08T11:48:44;26.30;50.90
11989;DHT22;6054;50.966;7.094;2023-10-08T11:51:12;26.30;50.90
11989;DHT22;6054;50.966;7.094;2023-10-08T11:53:42;26.30;50.90
11989;DHT22;6054;50.966;7.094;2023-10-08T11:56:09;26.40;51.00
11989;DHT22;6054;50.966;7.094;2023-10-08T11:58:40;26.40;51.00
11989;DHT22;6054;50.966;7.094;2023-10-08T12:01:10;26.50;51.00
11989;DHT22;6054;50.966;7.094;2023-10-08T12:03:41;26.60;51.30
11989;DHT22;6054;50.966;7.094;2023-10-08T12:06:09;26.60;51.10
11989;DHT22;6054;50.966;7.094;2023-10-08T12:08:41;26.60;51.20
11989;DHT22;6054;50.966;7.094;2023-10-08T12:11:11;26.70;51.20
11989;DHT22;6054;50.966;7.094;2023-10-08T12:13:39;26.70;51.10
11989;DHT22;6054;50.966;7.094;2023-10-08T12:16:13;26.70;50.80
11989;DHT22;6054;50.966;7.094;2023-10-08T12:18:46;26.70;51.00
11989;DHT22;6054;50.966;7.094;2023-10-08T12:21:18;26.80;51.00
11989;DHT22;6054;50.966;7.094;2023-10-08T12:23:45;26.80;51.60
11989;DHT22;6054;50.966;7.094;2023-10-08T12:26:12;26.80;50.70
11989;DHT22;6054;50.966;7.094;2023-10-08T12:28:42;26.90;50.60
11989;DHT22;6054;50.966;7.094;2023-10-08T12:31:11;26.90;50.60
11989;DHT22;6054;50.966;7.094;2023-10-08T12:33:38;26.90;50.70
11989;DHT22;6054;50.966;7.094;2023-10-08T12:36:05;26.90;50.50
11989;DHT22;6054;50.966;7.094;2023-10-08T12:38:37;26.90;50.50
11989;DHT22;6054;50.966;7.094;2023-10-08T12:41:04;26.80;50.20
11989;DHT22;6054;50.966;7.094;2023-10-08T12:43:37;27.10;50.70
11989;DHT22;6054;50.966;7.094;2023-10-08T12:46:09;26.90;50.80
11989;DHT22;6054;50.966;7.094;2023-10-08T12:48:44;26.90;50.90
11989;DHT22;6054;50.966;7.094;2023-10-08T12:51:16;27.10;51.00
11989;DHT22;6054;50.966;7.094;2023-10-08T12:53:43;26.90;51.10
11989;DHT22;6054;50.966;7.094;2023-10-08T12:56:16;26.90;50.80
11989;DHT22;6054;50.966;7.094;2023-10-08T12:58:47;27.10;50.90
11989;DHT22;6054;50.966;7.094;2023-10-08T13:01:16;27.00;50.90
11989;DHT22;6054;50.966;7.094;2023-10-08T13:03:44;26.90;50.80
11989;DHT22;6054;50.966;7.094;2023-10-08T13:06:13;27.00;50.90
11989;DHT22;6054;50.966;7.094;2023-10-08T13:08:47;27.00;51.20
11989;DHT22;6054;50.966;7.094;2023-10-08T13:11:14;27.00;51.10
11989;DHT22;6054;50.966;7.094;2023-10-08T13:13:41;27.00;50.60
11989;DHT22;6054;50.966;7.094;2023-10-08T13:16:08;27.10;50.80
11989;DHT22;6054;50.966;7.094;2023-10-08T13:18:36;27.10;51.00
11989;DHT22;6054;50.966;7.094;2023-10-08T13:21:04;27.30;51.20
11989;DHT22;6054;50.966;7.094;2023-10-08T13:23:32;27.30;51.20
11989;DHT22;6054;50.966;7.094;2023-10-08T13:26:01;27.10;51.00
11989;DHT22;6054;50.966;7.094;2023-10-08T13:28:29;27.30;50.90
11989;DHT22;6054;50.966;7.094;2023-10-08T13:30:59;27.10;50.90
11989;DHT22;6054;50.966;7.094;2023-10-08T13:33:26;27.10;50.90
11989;DHT22;6054;50.966;7.094;2023-10-08T13:35:55;27.20;51.00
11989;DHT22;6054;50.966;7.094;2023-10-08T13:38:22;27.20;51.20
11989;DHT22;6054;50.966;7.094;2023-10-08T13:40:49;27.20;51.00
11989;DHT22;6054;50.966;7.094;2023-10-08T13:43:29;27.20;50.80
11989;DHT22;6054;50.966;7.094;2023-10-08T13:46:01;27.30;51.00
11989;DHT22;6054;50.966;7.094;2023-10-08T13:48:30;27.20;50.90
11989;DHT22;6054;50.966;7.094;2023-10-08T13:51:00;27.20;51.00
11989;DHT22;6054;50.966;7.094;2023-10-08T13:53:26;27.50;51.00
11989;DHT22;6054;50.966;7.094;2023-10-08T13:55:56;27.30;50.80
11989;DHT22;6054;50.966;7.094;2023-10-08T13:58:23;27.30;51.00
11989;DHT22;6054;50.966;7.094;2023-10-08T14:00:50;27.30;51.00
11989;DHT22;6054;50.966;7.094;2023-10-08T14:03:18;27.40;51.10
11989;DHT22;6054;50.966;7.094;2023-10-08T14:05:47;27.40;51.40
11989;DHT22;6054;50.966;7.094;2023-10-08T14:08:17;27.50;51.30
11989;DHT22;6054;50.966;7.094;2023-10-08T14:10:44;27.50;51.20
11989;DHT22;6054;50.966;7.094;2023-10-08T14:13:13;27.50;50.90
11989;DHT22;6054;50.966;7.094;2023-10-08T14:15:40;27.50;50.70
11989;DHT22;6054;50.966;7.094;2023-10-08T14:18:11;27.50;50.70
11989;DHT22;6054;50.966;7.094;2023-10-08T14:20:43;27.60;50.60
11989;DHT22;6054;50.966;7.094;2023-10-08T14:23:12;27.60;50.80
11989;DHT22;6054;50.966;7.094;2023-10-08T14:25:43;27.70;51.00
11989;DHT22;6054;50.966;7.094;2023-10-08T14:28:11;27.60;50.80
11989;DHT22;6054;50.966;7.094;2023-10-08T14:30:48;27.70;50.60
11989;DHT22;6054;50.966;7.094;2023-10-08T14:33:19;27.60;50.70
11989;DHT22;6054;50.966;7.094;2023-10-08T14:35:50;27.60;50.50
11989;DHT22;6054;50.966;7.094;2023-10-08T14:38:34;27.70;50.30
11989;DHT22;6054;50.966;7.094;2023-10-08T14:41:19;27.70;50.30
11989;DHT22;6054;50.966;7.094;2023-10-08T14:44:03;27.60;50.30
11989;DHT22;6054;50.966;7.094;2023-10-08T14:46:32;27.70;50.30
11989;DHT22;6054;50.966;7.094;2023-10-08T14:49:03;27.70;50.50
11989;DHT22;6054;50.966;7.094;2023-10-08T14:51:37;27.70;50.60
11989;DHT22;6054;50.966;7.094;2023-10-08T14:54:06;27.90;51.00
11989;DHT22;6054;50.966;7.094;2023-10-08T14:56:35;27.70;50.60
11989;DHT22;6054;50.966;7.094;2023-10-08T14:59:02;27.70;50.70
11989;DHT22;6054;50.966;7.094;2023-10-08T15:01:29;27.70;50.60
11989;DHT22;6054;50.966;7.094;2023-10-08T15:03:59;27.70;50.40
11989;DHT22;6054;50.966;7.094;2023-10-08T15:06:29;27.70;50.70
11989;DHT22;6054;50.966;7.094;2023-10-08T15:08:56;27.70;50.80
11989;DHT22;6054;50.966;7.094;2023-10-08T15:11:23;27.70;50.50
11989;DHT22;6054;50.966;7.094;2023-10-08T15:13:52;27.90;51.00
11989;DHT22;6054;50.966;7.094;2023-10-08T15:16:19;27.80;51.00
11989;DHT22;6054;50.966;7.094;2023-10-08T15:18:48;27.80;51.00
11989;DHT22;6054;50.966;7.094;2023-10-08T15:21:15;27.70;51.00
11989;DHT22;6054;50.966;7.094;2023-10-08T15:23:43;27.70;51.20
11989;DHT22;6054;50.966;7.094;2023-10-08T15:26:10;27.60;51.70
11989;DHT22;6054;50.966;7.094;2023-10-08T15:28:37;27.60;51.80
11989;DHT22;6054;50.966;7.094;2023-10-08T15:31:06;27.70;52.00
11989;DHT22;6054;50.966;7.094;2023-10-08T15:33:33;27.60;52.30
11989;DHT22;6054;50.966;7.094;2023-10-08T15:36:00;27.60;52.20
11989;DHT22;6054;50.966;7.094;2023-10-08T15:38:27;27.60;52.30
11989;DHT22;6054;50.966;7.094;2023-10-08T15:40:53;27.80;52.50
11989;DHT22;6054;50.966;7.094;2023-10-08T15:43:20;27.60;52.30
11989;DHT22;6054;50.966;7.094;2023-10-08T15:45:47;27.60;52.10
11989;DHT22;6054;50.966;7.094;2023-10-08T15:48:15;27.60;52.20
11989;DHT22;6054;50.966;7.094;2023-10-08T15:50:42;27.60;52.10
11989;DHT22;6054;50.966;7.094;2023-10-08T15:53:09;27.60;52.10
11989;DHT22;6054;50.966;7.094;2023-10-08T15:55:36;27.50;52.00
11989;DHT22;6054;50.966;7.094;2023-10-08T15:58:03;27.60;52.30
11989;DHT22;6054;50.966;7.094;2023-10-08T16:00:30;27.50;52.30
11989;DHT22;6054;50.966;7.094;2023-10-08T16:02:58;27.50;52.40
11989;DHT22;6054;50.966;7.094;2023-10-08T16:05:26;27.50;52.50
11989;DHT22;6054;50.966;7.094;2023-10-08T16:07:53;27.50;52.60
11989;DHT22;6054;50.966;7.094;2023-10-08T16:10:24;27.50;52.50